Terminal Aerodrome Forecast
Issued by NWS Central Illinois

Home | Current Version | Previous Version | Text Only | Print | Product List | Glossary On
Versions: 1 2 3 4 5 6 7 8 9 10 11 12 13 14 15 16 17 18 19 20
000
FTUS43 KILX 250500 RRA
TAFSPI
TAF
KSPI 250546Z 2506/2606 26010KT P6SM OVC020
     FM250900 25010KT P6SM OVC015
      TEMPO 2511/2513 4SM BR OVC007
     FM251300 21012KT P6SM OVC012
     FM251800 18014G20KT P6SM SCT250=

USA.gov is the U.S. government's official web portal to all federal, state and local government web resources and services.